Time;durP1;ratioP1;P1;durP2;ratioP2;P2;SDS_P1;SDS_P2;PMS_P1;PMS_P2;Temp;Humidity;BMP_temperature;BMP_pressure;BME280_temperature;BME280_humidity;BME280_pressure;Samples;Min_cycle;Max_cycle;Signal;HPM_P1;HPM_P2
2022/06/11 00:01:22;;;;;;;;;;;;;;;19.84;51.35;101377.91;5048120;28;20052;-55
2022/06/11 00:03:53;;;;;;;6.93;3.60;;;;;;;19.82;51.13;101380.75;5032140;28;19963;-55
2022/06/11 00:06:21;;;;;;;6.55;3.53;;;;;;;19.83;50.93;101381.59;5043110;28;20136;-59
2022/06/11 00:08:48;;;;;;;8.57;4.28;;;;;;;19.84;50.97;101385.94;5049322;28;20065;-57
2022/06/11 00:11:15;;;;;;;12.57;3.80;;;;;;;19.84;51.36;101381.44;5049225;28;20400;-57
2022/06/11 00:13:43;;;;;;;11.10;4.38;;;;;;;19.82;51.68;101380.75;5045335;28;20066;-57
2022/06/11 00:16:12;;;;;;;11.95;5.18;;;;;;;19.81;52.00;101387.03;5041176;28;20119;-58
2022/06/11 00:18:41;;;;;;;10.15;5.03;;;;;;;19.81;52.05;101378.19;5042249;28;20053;-55
2022/06/11 00:21:10;;;;;;;11.52;5.78;;;;;;;19.79;51.97;101385.50;5046061;28;20049;-58
2022/06/11 00:23:38;;;;;;;13.82;5.05;;;;;;;19.79;52.28;101380.16;5027418;28;20563;-57
2022/06/11 00:26:05;;;;;;;10.35;5.30;;;;;;;19.76;52.64;101378.56;5040337;28;20045;-55
2022/06/11 00:28:32;;;;;;;8.77;4.88;;;;;;;19.76;52.37;101385.75;5043186;28;20064;-58
2022/06/11 00:31:00;;;;;;;13.65;7.03;;;;;;;19.75;52.62;101384.91;5038576;28;20522;-58
2022/06/11 00:33:27;;;;;;;13.07;6.93;;;;;;;19.75;52.21;101389.41;5044318;28;20037;-59
2022/06/11 00:35:54;;;;;;;17.63;7.07;;;;;;;19.75;52.02;101384.06;5041912;28;20053;-57
2022/06/11 00:38:23;;;;;;;13.93;6.40;;;;;;;19.75;51.95;101384.91;5036204;28;20064;-57
2022/06/11 00:40:52;;;;;;;11.98;6.30;;;;;;;19.74;51.65;101383.22;5043171;28;20143;-57
2022/06/11 00:43:22;;;;;;;11.10;5.55;;;;;;;19.73;51.58;101379.69;5048148;28;20531;-58
2022/06/11 00:46:19;;;;;;;12.90;5.90;;;;;;;19.73;52.11;101381.53;5046269;28;20642;-59
2022/06/11 00:48:46;;;;;;;13.75;6.15;;;;;;;19.71;51.66;101375.44;5038518;28;20060;-55
2022/06/11 00:51:20;;;;;;;10.30;5.78;;;;;;;19.70;51.40;101377.28;5044365;28;20128;-57
2022/06/11 00:54:00;;;;;;;15.75;6.70;;;;;;;19.69;51.42;101375.59;5030181;28;20056;-54
2022/06/11 00:56:40;;;;;;;10.02;5.63;;;;;;;19.68;51.25;101373.91;5031874;28;20191;-54
2022/06/11 00:59:12;;;;;;;9.65;5.05;;;;;;;19.66;50.85;101370.50;5038708;28;20072;-58
2022/06/11 01:01:39;;;;;;;12.57;5.53;;;;;;;19.65;50.53;101366.16;5029811;28;20057;-56
2022/06/11 01:04:40;;;;;;;10.23;5.25;;;;;;;19.64;50.97;101367.13;5041890;28;20049;-53
2022/06/11 01:07:28;;;;;;;13.88;5.85;;;;;;;19.63;51.13;101367.25;5044908;28;20630;-56
2022/06/11 01:10:33;;;;;;;9.13;4.45;;;;;;;19.60;51.12;101365.69;5017325;28;20057;-58
2022/06/11 01:13:15;;;;;;;9.20;4.95;;;;;;;19.59;51.12;101363.97;5042079;28;20373;-57
2022/06/11 01:15:47;;;;;;;7.63;4.63;;;;;;;19.56;51.13;101358.03;5033783;28;20072;-54
2022/06/11 01:18:29;;;;;;;9.10;5.25;;;;;;;19.55;51.13;101364.38;5029753;28;20048;-57
2022/06/11 01:21:34;;;;;;;8.80;5.45;;;;;;;19.52;51.15;101360.13;5028933;28;20088;-57
2022/06/11 01:24:40;;;;;;;9.20;5.60;;;;;;;19.50;52.27;101359.41;4953953;28;20132;-57
2022/06/11 01:27:29;;;;;;;8.10;5.43;;;;;;;19.45;52.79;101359.81;5027489;28;20109;-56
2022/06/11 01:29:59;;;;;;;11.93;5.68;;;;;;;19.42;52.32;101357.38;5041151;28;20064;-57
2022/06/11 01:32:51;;;;;;;9.73;5.55;;;;;;;19.40;52.10;101351.31;5046502;28;20060;-53
2022/06/11 01:35:27;;;;;;;11.75;5.60;;;;;;;19.38;52.57;101355.09;5044679;28;20060;-54
2022/06/11 01:37:55;;;;;;;;;;;;;;;19.37;52.25;101346.25;5025288;28;20056;-55
2022/06/11 01:40:32;;;;;;;14.40;5.93;;;;;;;19.35;52.50;101350.84;5029625;28;20253;-55
2022/06/11 01:43:10;;;;;;;10.05;5.18;;;;;;;19.32;52.29;101339.59;5037195;28;20085;-55
2022/06/11 01:45:38;;;;;;;13.48;5.82;;;;;;;19.29;52.55;101345.22;5024080;28;20053;-58
2022/06/11 01:48:07;;;;;;;17.08;6.50;;;;;;;19.28;52.84;101343.53;5043197;28;20063;-56
2022/06/11 01:50:40;;;;;;;14.48;6.10;;;;;;;19.25;53.69;101341.94;5050992;28;20045;-58
2022/06/11 01:53:35;;;;;;;14.30;5.95;;;;;;;19.21;53.28;101343.16;5044666;28;20398;-56
2022/06/11 01:56:12;;;;;;;10.57;5.43;;;;;;;19.16;53.33;101342.72;5025597;28;20087;-57
2022/06/11 01:58:42;;;;;;;11.60;5.45;;;;;;;19.13;53.34;101346.47;5018242;28;20065;-58
2022/06/11 02:01:28;;;;;;;12.50;5.82;;;;;;;19.10;53.25;101352.09;5045726;28;20131;-54
2022/06/11 02:04:12;;;;;;;14.15;5.32;;;;;;;19.08;53.57;101347.84;5040437;28;20052;-55
2022/06/11 02:07:04;;;;;;;12.60;5.53;;;;;;;19.03;53.48;101356.22;5047468;28;20060;-57
2022/06/11 02:09:39;;;;;;;10.43;5.00;;;;;;;19.00;53.59;101358.31;5022078;28;20382;-57
2022/06/11 02:12:12;;;;;;;9.85;5.75;;;;;;;18.97;53.77;101351.41;5023456;28;20048;-57
2022/06/11 02:14:46;;;;;;;10.45;5.50;;;;;;;18.94;54.59;101362.31;5027188;28;20112;-58
2022/06/11 02:17:27;;;;;;;14.43;5.63;;;;;;;18.89;54.44;101360.03;5030683;28;20060;-58
2022/06/11 02:19:58;;;;;;;11.30;4.55;;;;;;;18.87;54.35;101353.16;5019867;28;20057;-56
2022/06/11 02:22:29;;;;;;;12.27;5.50;;;;;;;18.85;54.48;101363.94;5055834;28;20501;-57
2022/06/11 02:25:20;;;;;;;10.52;4.88;;;;;;;18.84;54.48;101362.25;5040233;28;20049;-58
2022/06/11 02:27:50;;;;;;;11.10;4.30;;;;;;;18.83;54.39;101362.38;5031273;28;20052;-57
2022/06/11 02:30:21;;;;;;;10.38;4.90;;;;;;;18.83;54.14;101365.03;5038557;28;20056;-58
2022/06/11 02:32:48;;;;;;;9.45;4.45;;;;;;;18.81;54.18;101356.31;5048091;28;20052;-58
2022/06/11 02:35:29;;;;;;;12.77;4.63;;;;;;;18.82;54.36;101363.31;5045365;28;20049;-56
2022/06/11 02:37:57;;;;;;;10.05;5.15;;;;;;;18.82;54.71;101364.19;5024852;28;20056;-57
2022/06/11 02:40:28;;;;;;;12.07;4.78;;;;;;;18.80;54.77;101360.78;5046332;28;20061;-57
2022/06/11 02:42:55;;;;;;;10.32;4.47;;;;;;;18.79;54.66;101367.13;5021660;28;20069;-58
2022/06/11 02:45:22;;;;;;;13.13;4.72;;;;;;;18.78;54.82;101362.75;5034486;28;20041;-56
2022/06/11 02:47:52;;;;;;;10.45;4.47;;;;;;;18.78;55.00;101361.88;5037458;28;20060;-57
2022/06/11 02:50:29;;;;;;;8.05;4.00;;;;;;;18.77;54.80;101365.53;5037923;28;20378;-58
2022/06/11 02:52:57;;;;;;;8.95;4.25;;;;;;;18.77;54.36;101360.19;5037130;28;20087;-57
2022/06/11 02:55:25;;;;;;;12.07;4.63;;;;;;;18.78;54.46;101369.88;5037117;28;20053;-56
2022/06/11 02:57:53;;;;;;;8.63;4.00;;;;;;;18.77;54.50;101366.38;5038326;28;20050;-56
2022/06/11 03:00:26;;;;;;;8.75;3.88;;;;;;;18.78;54.32;101367.22;5039638;28;20669;-59
2022/06/11 03:02:53;;;;;;;9.35;3.35;;;;;;;18.78;54.31;101367.22;5051184;28;20056;-58
2022/06/11 03:05:23;;;;;;;9.75;4.45;;;;;;;18.81;54.42;101374.97;5039423;28;20052;-58
2022/06/11 03:07:51;;;;;;;9.55;4.10;;;;;;;18.82;54.25;101374.88;5040841;28;20052;-54
2022/06/11 03:10:20;;;;;;;9.10;4.18;;;;;;;18.85;54.29;101376.44;5036954;28;20053;-54
2022/06/11 03:12:47;;;;;;;5.47;3.83;;;;;;;18.87;54.27;101377.16;5046240;28;20060;-56
2022/06/11 03:15:15;;;;;;;10.15;4.60;;;;;;;18.88;54.10;101374.34;5040859;28;20041;-56
2022/06/11 03:17:43;;;;;;;8.70;4.20;;;;;;;18.90;54.41;101375.06;5046042;28;20064;-58
2022/06/11 03:20:12;;;;;;;6.45;3.67;;;;;;;18.90;54.60;101377.72;5038913;28;20057;-55
2022/06/11 03:22:40;;;;;;;8.77;3.65;;;;;;;18.92;54.15;101372.28;5046324;28;20061;-57
2022/06/11 03:25:08;;;;;;;7.15;3.38;;;;;;;18.94;54.27;101381.00;5026241;28;20050;-57
2022/06/11 03:27:38;;;;;;;8.80;3.35;;;;;;;18.97;54.08;101386.94;5035589;28;20120;-56
2022/06/11 03:30:09;;;;;;;10.48;3.60;;;;;;;19.00;53.79;101380.50;5035083;28;20061;-57
2022/06/11 03:32:36;;;;;;;7.50;3.65;;;;;;;19.03;54.04;101382.06;5043037;28;20044;-57
2022/06/11 03:35:05;;;;;;;8.23;3.50;;;;;;;19.05;54.06;101380.97;5039819;28;20044;-58
2022/06/11 03:37:32;;;;;;;6.40;3.20;;;;;;;19.07;54.00;101380.84;5050010;28;20049;-55
2022/06/11 03:40:00;;;;;;;11.95;3.63;;;;;;;19.10;54.55;101383.28;5042335;28;20075;-56
2022/06/11 03:42:27;;;;;;;9.50;4.32;;;;;;;19.11;54.53;101384.97;5048232;28;20051;-58
2022/06/11 03:44:54;;;;;;;12.02;4.13;;;;;;;19.13;54.21;101383.84;5056700;28;20358;-58
2022/06/11 03:47:22;;;;;;;7.72;3.30;;;;;;;19.16;54.34;101388.94;5039271;28;20065;-57
2022/06/11 03:49:49;;;;;;;7.18;3.45;;;;;;;19.20;54.64;101387.72;5033307;28;20057;-54
2022/06/11 03:52:16;;;;;;;6.95;3.40;;;;;;;19.21;54.72;101389.41;5055200;28;20052;-55
2022/06/11 03:54:44;;;;;;;6.40;3.30;;;;;;;19.23;54.29;101386.63;5053796;28;20397;-57
2022/06/11 03:57:11;;;;;;;6.78;3.03;;;;;;;19.23;53.83;101387.47;5043570;28;20124;-57
2022/06/11 03:59:38;;;;;;;5.38;2.60;;;;;;;19.27;53.88;101382.69;5048974;28;20056;-57
2022/06/11 04:02:05;;;;;;;8.85;2.92;;;;;;;19.30;53.70;101390.44;5055987;28;20701;-54
2022/06/11 04:04:32;;;;;;;9.40;3.28;;;;;;;19.34;53.59;101391.03;5056696;28;20412;-56
2022/06/11 04:07:00;;;;;;;8.95;3.10;;;;;;;19.36;53.52;101386.41;5024008;28;20056;-56
2022/06/11 04:09:33;;;;;;;8.63;3.83;;;;;;;19.41;53.31;101393.09;5026744;28;20056;-54
2022/06/11 04:12:02;;;;;;;9.90;3.08;;;;;;;19.44;53.13;101386.63;5043755;28;20068;-56
2022/06/11 04:14:30;;;;;;;11.23;2.35;;;;;;;19.49;53.29;101395.09;5048583;28;20071;-53
2022/06/11 04:17:02;;;;;;;8.10;2.63;;;;;;;19.52;52.97;101388.66;5026395;28;20045;-60
2022/06/11 04:19:32;;;;;;;10.35;3.17;;;;;;;19.55;53.07;101389.25;5024734;28;20049;-58
2022/06/11 04:22:00;;;;;;;5.57;2.60;;;;;;;19.59;53.00;101393.34;5035390;28;20560;-56
2022/06/11 04:24:28;;;;;;;5.15;2.60;;;;;;;19.63;52.67;101392.16;5047554;28;20057;-57
2022/06/11 04:26:58;;;;;;;6.53;2.83;;;;;;;19.70;52.54;101389.78;5044148;28;20144;-56
2022/06/11 04:29:28;;;;;;;7.03;2.53;;;;;;;19.73;52.44;101390.38;5059602;28;20079;-56
2022/06/11 04:31:58;;;;;;;6.07;2.38;;;;;;;19.80;52.35;101392.53;5046175;28;20060;-55
2022/06/11 04:34:26;;;;;;;8.30;2.83;;;;;;;19.83;52.30;101386.91;5046981;28;20456;-56
2022/06/11 04:36:54;;;;;;;5.35;2.53;;;;;;;19.87;52.26;101391.88;5038063;28;20053;-57
2022/06/11 04:39:23;;;;;;;6.88;2.83;;;;;;;19.90;52.24;101388.94;5046597;28;20068;-58
2022/06/11 04:41:51;;;;;;;7.20;2.83;;;;;;;19.94;52.14;101392.19;5033493;28;20053;-59
2022/06/11 04:44:18;;;;;;;6.45;2.60;;;;;;;20.02;52.06;101389.69;5042207;28;20137;-56
2022/06/11 04:46:46;;;;;;;8.35;3.40;;;;;;;20.05;52.15;101384.09;5049273;28;20068;-57
2022/06/11 04:49:14;;;;;;;8.77;2.80;;;;;;;20.13;52.02;101394.13;5047181;28;20146;-56
2022/06/11 04:51:41;;;;;;;8.85;2.67;;;;;;;20.18;52.10;101400.75;5043765;28;20068;-57
2022/06/11 04:54:09;;;;;;;7.32;2.70;;;;;;;20.21;52.03;101395.13;5042209;28;20049;-55
2022/06/11 04:56:36;;;;;;;9.75;2.70;;;;;;;20.21;51.66;101394.28;5040178;28;20547;-54
2022/06/11 04:59:04;;;;;;;4.85;2.35;;;;;;;20.21;51.54;101396.94;5047534;28;20416;-56
2022/06/11 05:01:38;;;;;;;8.13;2.58;;;;;;;20.25;51.61;101390.34;5047464;28;20067;-54
2022/06/11 05:04:06;;;;;;;5.47;2.60;;;;;;;20.29;51.50;101393.63;5047984;28;20045;-61
2022/06/11 05:06:37;;;;;;;9.50;2.72;;;;;;;20.33;51.15;101398.56;5034146;28;20478;-57
2022/06/11 05:09:07;;;;;;;5.88;2.15;;;;;;;20.40;51.11;101396.22;5044243;28;20141;-57
2022/06/11 05:11:35;;;;;;;7.50;2.25;;;;;;;20.44;51.05;101397.59;5043140;28;20062;-57
2022/06/11 05:14:02;;;;;;;4.82;2.10;;;;;;;20.51;51.13;101400.63;5045774;28;20064;-57
2022/06/11 05:16:29;;;;;;;7.07;2.47;;;;;;;20.55;50.89;101404.72;5040693;28;20056;-56
2022/06/11 05:18:57;;;;;;;7.15;2.30;;;;;;;20.53;51.09;101402.16;5039233;28;20082;-54
2022/06/11 05:21:24;;;;;;;7.18;2.22;;;;;;;20.55;50.70;101404.72;5040847;28;20053;-59
2022/06/11 05:23:51;;;;;;;7.18;2.17;;;;;;;20.54;50.74;101405.72;5037797;28;20063;-57
2022/06/11 05:26:21;;;;;;;6.43;2.65;;;;;;;20.57;50.64;101406.25;5047532;28;20037;-57
2022/06/11 05:28:50;;;;;;;4.25;2.13;;;;;;;20.65;50.65;101411.78;5044006;28;20053;-58
2022/06/11 05:31:17;;;;;;;5.15;2.28;;;;;;;20.71;50.82;101411.25;5042746;28;20052;-58
2022/06/11 05:33:46;;;;;;;11.02;2.67;;;;;;;20.76;50.85;101412.66;5034916;28;20078;-54
2022/06/11 05:36:13;;;;;;;7.10;1.95;;;;;;;20.81;50.62;101416.63;5032372;28;20042;-57
2022/06/11 05:38:41;;;;;;;9.43;2.83;;;;;;;20.70;50.54;101416.72;5041042;28;20061;-57
2022/06/11 05:41:09;;;;;;;6.63;2.13;;;;;;;20.83;50.81;101416.47;5034901;28;20041;-57
2022/06/11 05:43:37;;;;;;;5.82;1.92;;;;;;;20.87;50.72;101418.75;5039575;28;20448;-56
2022/06/11 05:46:13;;;;;;;7.97;2.67;;;;;;;20.95;50.27;101420.75;5041329;28;20413;-55
2022/06/11 05:48:46;;;;;;;8.57;2.53;;;;;;;20.99;50.41;101417.66;5027576;28;20065;-56
2022/06/11 05:51:17;;;;;;;6.35;2.55;;;;;;;21.16;50.20;101424.16;5040852;28;20055;-57
2022/06/11 05:53:48;;;;;;;7.60;2.70;;;;;;;21.24;50.05;101424.28;5029196;28;20056;-53
2022/06/11 05:56:17;;;;;;;5.15;2.13;;;;;;;21.31;49.93;101421.06;5030880;28;20052;-58
2022/06/11 05:58:49;;;;;;;6.38;1.90;;;;;;;21.44;49.60;101421.66;5029604;28;20522;-56
2022/06/11 06:01:18;;;;;;;7.03;2.17;;;;;;;21.54;49.67;101418.97;5050399;28;20059;-59
2022/06/11 06:03:45;;;;;;;5.47;2.17;;;;;;;21.64;49.72;101422.47;5030832;28;20061;-57
2022/06/11 06:06:12;;;;;;;4.25;2.03;;;;;;;21.68;49.05;101421.19;5035829;28;20061;-56
2022/06/11 06:08:41;;;;;;;4.80;2.15;;;;;;;21.73;49.27;101416.25;5049102;28;20430;-57
2022/06/11 06:11:08;;;;;;;7.50;2.25;;;;;;;21.79;48.70;101417.50;5047964;28;20060;-57
2022/06/11 06:13:47;;;;;;;6.93;2.67;;;;;;;21.87;48.69;101418.47;5040301;28;20056;-55
2022/06/11 06:16:18;;;;;;;7.32;2.25;;;;;;;21.95;48.39;101417.75;5040311;28;20116;-56
2022/06/11 06:18:46;;;;;;;8.88;2.72;;;;;;;21.98;48.20;101412.97;5041100;28;20151;-55
2022/06/11 06:21:15;;;;;;;5.15;2.05;;;;;;;22.03;47.84;101412.53;5043396;28;20053;-56
2022/06/11 06:23:43;;;;;;;8.45;2.20;;;;;;;21.95;47.57;101410.56;5053777;28;20068;-57
2022/06/11 06:26:11;;;;;;;4.57;1.90;;;;;;;22.03;47.87;101422.41;5049554;28;20052;-55
2022/06/11 06:28:38;;;;;;;4.32;1.88;;;;;;;22.08;47.10;101414.78;5054957;28;20160;-58
2022/06/11 06:31:07;;;;;;;6.00;1.83;;;;;;;22.21;47.51;101418.84;5047929;28;20504;-55
2022/06/11 06:33:34;;;;;;;6.70;2.17;;;;;;;22.14;47.30;101416.88;5050714;28;20042;-57
2022/06/11 06:36:03;;;;;;;5.55;2.70;;;;;;;22.26;47.22;101422.94;5040689;28;20450;-55
2022/06/11 06:38:30;;;;;;;6.28;2.10;;;;;;;22.23;46.98;101422.22;5040379;28;20064;-55
2022/06/11 06:40:58;;;;;;;7.45;2.67;;;;;;;22.39;47.33;101416.22;5023026;28;20590;-57
2022/06/11 06:43:25;;;;;;;5.43;2.30;;;;;;;22.47;46.71;101432.44;5037842;28;20064;-55
2022/06/11 06:45:53;;;;;;;11.35;2.88;;;;;;;22.54;46.43;101424.63;5047251;28;20057;-55
2022/06/11 06:48:20;;;;;;;8.68;2.97;;;;;;;22.56;45.89;101425.34;5049867;28;20358;-56
2022/06/11 06:50:47;;;;;;;8.32;2.72;;;;;;;22.58;45.48;101420.66;5048932;28;20128;-54
2022/06/11 06:53:14;;;;;;;7.25;2.30;;;;;;;22.68;45.85;101421.44;5050831;28;20426;-55
2022/06/11 06:55:42;;;;;;;6.68;2.25;;;;;;;22.88;45.76;101424.88;5052548;28;20044;-55
2022/06/11 06:58:09;;;;;;;10.13;2.85;;;;;;;22.91;45.02;101421.91;5042569;28;20524;-55
2022/06/11 07:00:36;;;;;;;8.07;2.53;;;;;;;23.01;45.14;101427.22;5037581;28;20055;-56
2022/06/11 07:03:03;;;;;;;7.28;2.40;;;;;;;23.07;45.01;101421.25;5047617;28;20092;-57
2022/06/11 07:05:31;;;;;;;8.05;2.60;;;;;;;23.15;45.23;101426.69;5035583;28;20056;-59
2022/06/11 07:07:58;;;;;;;5.70;2.30;;;;;;;23.24;45.26;101428.47;5040874;28;20167;-57
2022/06/11 07:10:25;;;;;;;4.93;2.28;;;;;;;23.34;44.57;101424.84;5049166;28;20389;-53
2022/06/11 07:12:53;;;;;;;14.68;2.47;;;;;;;23.21;44.55;101419.88;5027710;28;20060;-54
2022/06/11 07:15:21;;;;;;;7.05;2.20;;;;;;;23.08;44.52;101422.09;5045928;28;20045;-55
2022/06/11 07:17:54;;;;;;;6.32;2.28;;;;;;;23.24;44.65;101424.94;5050488;28;20075;-56
2022/06/11 07:20:26;;;;;;;6.53;2.15;;;;;;;23.40;44.87;101416.16;5047510;28;20132;-55
2022/06/11 07:22:57;;;;;;;6.88;1.92;;;;;;;23.35;44.82;101421.16;5023165;28;20090;-58
2022/06/11 07:25:25;;;;;;;5.82;1.90;;;;;;;23.39;44.71;101415.31;5049129;28;20065;-55
2022/06/11 07:27:56;;;;;;;5.22;2.05;;;;;;;23.54;44.52;101407.53;5049142;28;20056;-57
2022/06/11 07:30:26;;;;;;;12.80;2.63;;;;;;;23.64;44.17;101412.81;5044445;28;20510;-57
2022/06/11 07:32:58;;;;;;;11.43;2.03;;;;;;;23.67;44.02;101410.72;5049377;28;20078;-55
2022/06/11 07:35:25;;;;;;;8.18;2.10;;;;;;;23.78;44.02;101404.25;5048095;28;20458;-55
2022/06/11 07:37:52;;;;;;;7.35;2.00;;;;;;;23.99;44.03;101411.94;5032189;28;20394;-55
2022/06/11 07:40:21;;;;;;;5.72;1.88;;;;;;;24.09;43.45;101407.31;5042789;28;20401;-58
2022/06/11 07:42:48;;;;;;;7.55;2.67;;;;;;;24.07;43.07;101408.44;5028021;28;20053;-54
2022/06/11 07:45:15;;;;;;;7.00;2.60;;;;;;;23.94;43.49;101416.94;5038615;28;20057;-56
2022/06/11 07:47:54;;;;;;;7.15;1.75;;;;;;;23.74;43.75;101409.09;5041946;28;20063;-57
2022/06/11 07:50:35;;;;;;;7.00;1.95;;;;;;;23.78;44.04;101408.78;5036604;28;20053;-57
2022/06/11 07:53:03;;;;;;;5.20;2.30;;;;;;;23.83;43.84;101409.16;5040989;28;20393;-55
2022/06/11 07:55:31;;;;;;;5.22;1.52;;;;;;;23.99;43.79;101407.38;5039334;28;20388;-57
2022/06/11 07:57:59;;;;;;;6.45;1.95;;;;;;;24.12;43.34;101412.34;5047425;28;20080;-57
2022/06/11 08:00:35;;;;;;;6.78;2.50;;;;;;;24.15;43.01;101408.50;5038540;28;20041;-57
2022/06/11 08:03:03;;;;;;;6.32;1.73;;;;;;;24.22;42.79;101410.38;5035636;28;20058;-57
2022/06/11 08:05:31;;;;;;;6.05;1.75;;;;;;;24.12;42.57;101411.50;5047401;28;20041;-57
2022/06/11 08:07:58;;;;;;;7.15;1.55;;;;;;;24.10;42.91;101403.59;5031375;28;20063;-57
2022/06/11 08:10:27;;;;;;;5.95;2.40;;;;;;;24.12;42.67;101406.97;5048092;28;20108;-55
2022/06/11 08:12:54;;;;;;;4.55;1.90;;;;;;;24.23;42.58;101405.88;5049208;28;20135;-58
2022/06/11 08:15:21;;;;;;;6.75;1.90;;;;;;;24.25;42.28;101406.53;5046419;28;20056;-55
2022/06/11 08:17:49;;;;;;;6.30;2.03;;;;;;;24.37;42.52;101399.91;5039952;28;20478;-51
2022/06/11 08:20:22;;;;;;;7.78;2.70;;;;;;;24.44;41.88;101416.22;5045942;28;20052;-56
2022/06/11 08:22:50;;;;;;;6.60;2.10;;;;;;;24.33;41.65;101408.44;5048385;28;20137;-56
2022/06/11 08:25:17;;;;;;;6.55;2.20;;;;;;;24.32;41.47;101409.44;5029915;28;20053;-58
2022/06/11 08:27:45;;;;;;;7.47;2.22;;;;;;;24.25;41.72;101410.06;5042308;28;20048;-55
2022/06/11 08:30:13;;;;;;;5.88;2.17;;;;;;;24.31;41.80;101405.03;5047540;28;20148;-54
2022/06/11 08:32:40;;;;;;;7.95;2.03;;;;;;;24.54;41.38;101413.41;5046489;28;20072;-57
2022/06/11 08:35:08;;;;;;;4.97;2.10;;;;;;;24.63;40.24;101404.34;5019499;28;20061;-55
2022/06/11 08:37:36;;;;;;;5.40;1.83;;;;;;;24.65;40.21;101408.59;5048485;28;20049;-55
2022/06/11 08:40:05;;;;;;;4.78;2.20;;;;;;;24.81;40.56;101404.25;5036072;28;20053;-55
2022/06/11 08:42:38;;;;;;;6.40;1.75;;;;;;;25.12;39.78;101410.75;5042503;28;20053;-57
2022/06/11 08:45:14;;;;;;;5.43;1.92;;;;;;;25.27;39.48;101402.84;5040504;28;20060;-57
2022/06/11 08:47:45;;;;;;;6.40;1.73;;;;;;;25.41;39.14;101396.78;5030133;28;20449;-56
2022/06/11 08:50:15;;;;;;;5.07;1.63;;;;;;;25.46;39.03;101399.81;5025428;28;20045;-57
2022/06/11 08:52:43;;;;;;;6.45;1.85;;;;;;;25.55;38.74;101395.28;5048329;28;20067;-58
2022/06/11 08:55:10;;;;;;;4.10;1.83;;;;;;;25.61;38.65;101396.44;5033947;28;20674;-56
2022/06/11 08:58:02;;;;;;;5.63;1.70;;;;;;;25.78;38.49;101395.44;5043093;28;20532;-60
2022/06/11 09:00:55;;;;;;;6.10;2.10;;;;;;;25.89;38.40;101396.94;5010011;28;20045;-57
2022/06/11 09:04:00;;;;;;;4.85;1.67;;;;;;;26.16;37.46;101393.84;5022960;28;20060;-56
2022/06/11 09:07:02;;;;;;;7.72;1.80;;;;;;;26.25;36.70;101390.09;5042375;28;20593;-56
2022/06/11 09:09:38;;;;;;;5.93;1.80;;;;;;;26.36;37.12;101394.25;5045580;28;20061;-57
2022/06/11 09:12:08;;;;;;;6.18;1.95;;;;;;;26.14;37.35;101395.84;5032998;28;20053;-59
2022/06/11 09:14:45;;;;;;;8.10;2.03;;;;;;;26.16;37.57;101390.28;5042939;28;20067;-57
2022/06/11 09:17:35;;;;;;;5.85;1.80;;;;;;;26.56;36.86;101386.59;5016497;28;20044;-55
2022/06/11 09:20:22;;;;;;;5.20;2.17;;;;;;;26.91;36.56;101384.38;5022546;28;20049;-56
2022/06/11 09:22:53;;;;;;;9.80;2.53;;;;;;;26.97;35.79;101386.34;5039638;28;20108;-53
2022/06/11 09:25:37;;;;;;;4.85;1.65;;;;;;;26.99;35.76;101389.75;5022007;28;20045;-54
2022/06/11 09:28:27;;;;;;;8.85;1.90;;;;;;;26.92;35.36;101389.59;5025103;28;20067;-56
2022/06/11 09:31:11;;;;;;;4.78;1.60;;;;;;;27.11;35.50;101380.22;5035742;28;20061;-54
2022/06/11 09:34:06;;;;;;;9.50;1.67;;;;;;;27.24;35.36;101382.31;5048853;28;20053;-56
2022/06/11 09:36:38;;;;;;;4.43;1.52;;;;;;;27.25;35.21;101384.84;5005173;28;20052;-60
2022/06/11 09:39:07;;;;;;;6.13;1.70;;;;;;;27.36;34.76;101383.56;5047451;28;20057;-61
2022/06/11 09:41:34;;;;;;;5.25;1.52;;;;;;;27.22;35.14;101384.38;5025173;28;20053;-59
2022/06/11 09:44:25;;;;;;;4.70;1.40;;;;;;;27.11;34.64;101382.06;5036338;28;20129;-59
2022/06/11 09:47:17;;;;;;;5.72;1.52;;;;;;;27.18;34.69;101393.84;5038447;28;20786;-60
2022/06/11 09:50:06;;;;;;;4.40;1.60;;;;;;;26.76;35.11;101387.00;5025692;28;20394;-59
2022/06/11 09:53:01;;;;;;;3.05;1.70;;;;;;;26.68;35.01;101387.91;5047286;28;20056;-59
2022/06/11 09:55:42;;;;;;;6.25;1.30;;;;;;;26.82;34.68;101380.06;5026940;28;20057;-60
2022/06/11 09:58:50;;;;;;;3.80;1.38;;;;;;;26.54;35.46;101372.44;5036130;28;20179;-59
2022/06/11 10:01:21;;;;;;;4.63;1.20;;;;;;;26.65;35.42;101382.00;5027560;28;20604;-60
2022/06/11 10:03:53;;;;;;;5.82;1.95;;;;;;;26.69;35.58;101373.38;5027305;28;20063;-60
2022/06/11 10:06:24;;;;;;;5.75;1.17;;;;;;;27.06;34.86;101376.34;5017678;28;20060;-61
2022/06/11 10:09:11;;;;;;;3.50;1.70;;;;;;;27.10;34.56;101374.97;5042321;28;20060;-62
2022/06/11 10:11:53;;;;;;;2.38;1.35;;;;;;;27.42;34.96;101363.06;5037545;28;20057;-59
2022/06/11 10:14:33;;;;;;;6.55;1.58;;;;;;;27.71;33.83;101367.69;5032638;28;20052;-59
2022/06/11 10:17:26;;;;;;;6.75;1.55;;;;;;;27.38;33.24;101361.75;5024030;28;20136;-59
2022/06/11 10:20:21;;;;;;;4.90;1.42;;;;;;;27.24;33.77;101358.84;5020197;28;20057;-58
2022/06/11 10:23:28;;;;;;;3.13;1.55;;;;;;;27.73;33.61;101360.25;5041522;28;20457;-60
2022/06/11 10:26:18;;;;;;;5.07;1.88;;;;;;;27.56;33.67;101364.09;5035968;28;20346;-59
2022/06/11 10:29:00;;;;;;;4.63;1.40;;;;;;;27.52;32.93;101364.50;5029388;28;20049;-59
2022/06/11 10:31:42;;;;;;;7.60;1.88;;;;;;;27.55;33.78;101378.66;5040563;28;20354;-58
2022/06/11 10:34:26;;;;;;;4.93;1.58;;;;;;;27.46;33.03;101369.78;5030815;28;20041;-59
2022/06/11 10:37:12;;;;;;;4.75;1.40;;;;;;;27.29;33.42;101369.09;5039986;28;20401;-59
2022/06/11 10:39:45;;;;;;;3.03;1.00;;;;;;;27.39;32.41;101371.56;5022860;28;20080;-59
2022/06/11 10:42:20;;;;;;;3.28;0.90;;;;;;;27.52;31.86;101361.78;5043616;28;20060;-58
2022/06/11 10:44:53;;;;;;;4.18;1.35;;;;;;;27.78;31.88;101357.81;5025590;28;20119;-57
2022/06/11 10:47:50;;;;;;;4.05;1.23;;;;;;;27.63;32.10;101351.53;5026853;28;20057;-54
2022/06/11 10:50:28;;;;;;;6.22;1.50;;;;;;;27.63;31.50;101356.94;5017708;28;20107;-58
2022/06/11 10:52:57;;;;;;;5.22;1.30;;;;;;;27.38;32.25;101343.69;5032848;28;20057;-60
2022/06/11 10:55:51;;;;;;;4.47;1.70;;;;;;;27.38;31.24;101362.59;5016064;28;20150;-60
2022/06/11 10:58:37;;;;;;;7.72;1.40;;;;;;;27.16;31.68;101358.06;5039382;28;20044;-58
2022/06/11 11:01:25;;;;;;;2.70;1.05;;;;;;;27.32;32.50;101351.66;5040844;28;20140;-61
2022/06/11 11:03:58;;;;;;;8.82;1.77;;;;;;;27.74;32.42;101353.84;5026700;28;20628;-60
2022/06/11 11:06:34;;;;;;;5.82;1.48;;;;;;;27.90;31.86;101352.81;5045361;28;20049;-60
2022/06/11 11:09:07;;;;;;;5.32;1.40;;;;;;;27.72;31.96;101359.41;5043883;28;20045;-60
2022/06/11 11:11:40;;;;;;;2.47;1.20;;;;;;;27.52;32.43;101353.69;5032771;28;20649;-59
2022/06/11 11:14:19;;;;;;;3.05;1.48;;;;;;;27.77;31.92;101356.16;5044057;28;20056;-60
2022/06/11 11:16:51;;;;;;;2.03;1.23;;;;;;;27.98;31.83;101353.56;5026070;28;20059;-58
2022/06/11 11:19:32;;;;;;;4.53;1.55;;;;;;;27.90;31.98;101350.09;5037859;28;20058;-58
2022/06/11 11:22:16;;;;;;;4.20;1.83;;;;;;;27.95;31.99;101345.81;5040264;28;20064;-59
2022/06/11 11:24:48;;;;;;;3.45;1.10;;;;;;;27.82;31.13;101342.91;5025049;28;20148;-58
2022/06/11 11:27:25;;;;;;;2.08;1.17;;;;;;;27.83;31.37;101339.19;5023808;28;20081;-59
2022/06/11 11:29:54;;;;;;;2.58;1.02;;;;;;;27.96;31.14;101341.22;5034292;28;20049;-59
2022/06/11 11:32:37;;;;;;;5.05;1.30;;;;;;;28.02;31.19;101341.34;5014426;28;20093;-59
2022/06/11 11:35:23;;;;;;;5.72;1.40;;;;;;;27.46;32.69;101335.47;5031797;28;20068;-59
2022/06/11 11:38:00;;;;;;;6.88;1.23;;;;;;;27.80;32.09;101342.25;5041518;28;20091;-59
2022/06/11 11:40:33;;;;;;;4.70;1.52;;;;;;;27.68;32.27;101328.31;5045113;28;20049;-59
2022/06/11 11:43:08;;;;;;;3.53;1.17;;;;;;;27.97;32.16;101326.69;5024219;28;20544;-58
2022/06/11 11:45:45;;;;;;;;;;;;;;;28.25;31.88;101324.97;5037338;28;20490;-59
2022/06/11 11:48:20;;;;;;;3.13;1.30;;;;;;;28.70;31.74;101320.31;5026709;28;19929;-59
2022/06/11 11:50:50;;;;;;;2.45;1.15;;;;;;;28.85;30.01;101327.53;5026200;28;20057;-59
2022/06/11 11:53:29;;;;;;;3.42;1.40;;;;;;;28.73;29.41;101321.81;5020408;28;20047;-61